Ana Sayfa
METAR-TAF:

METAR-TAF

Havaalanları :

Nakhon Ratchasima, Tayland

Enlem: 14-56-58N, Boylam: 102-18-45E, yükseklik: 233 m

Güncel hava durumu gözlemi

Rapor saat 11:00 UTC de 7 saat ve 45 dakika önce yapıldı.
Sakin rüzgar
Sıcaklık 21°C
Nem 53%
Basınç 1013 hPa
Görüş mesafesi: 9000 m

METAR: VTUQ 101100Z 00000KT 9000 NSC 21/11 Q1013 NOSIG

Saat: 01:45 (18:45 UTC)

Tahmin

Rapor saat 17:00 UTC de 1 saat ve 45 dakika önce yapıldı.
Ayın 10'si saat 18 UTC'den ayın 11'si saat 18 UTC'ye kadar geçerli Tahmin
Rüzgar kuzeydoğudan 4 kt
Görüş mesafesi: 9000 m
Dönüşüyor
ayın 10'si saat 20 UTC'den ayın 10'si saat 22 UTC'ye kadar
Görüş mesafesi: 4000 m
Pus
Dönüşüyor
ayın 10'si saat 23 UTC'den ayın 11'si saat 01 UTC'ye kadar
Görüş mesafesi: 9000 m

TAF: VTUQ 101700Z 1018/1118 04004KT 9000 NSC BECMG 1020/1022 4000 BR BECMG 1023/1101 9000 NSW

4.000'den fazla havaalanı için hava durumu gözlemleri ve tahminleri (METAR ve TAF raporları).

Kullanılabilir istasyonlar harita üzerinde sarı ve kırmızı noktalarla gösterilir.

İstasyonun adını görmek için fareyi noktanın üzerinde gezdirin.

Sonrasında hava gözlem ve tahminlerini görmek için tıklayın.

Haritayı değiştirmek için: yaklaştırmak için siyah artı işaretli yeşil düğmeye ve uzaklaştırmak için de eksi işaretli düğmeye hızla tıklayın; bitişik haritalar için yeşil okları kullanın.


METAR-TAF: